D/T METAR WX W/DIR W/SPE G/SPE TEMP DEWP
19/03/19 04:20 EGNX 190420Z 24006KT 9999 BKN028 07/07 Q1024 WSW (240°) 6.9mph 7°C 7°C
19/03/19 03:20 EGNX 190320Z 24004KT 9999 BKN024 07/07 Q1024 WSW (240°) 4.6mph 7°C 7°C
19/03/19 02:50 EGNX 190250Z 23005KT 9999 BKN022 07/07 Q1023 SW (230°) 5.8mph 7°C 7°C
19/03/19 02:20 EGNX 190220Z 24006KT 9999 FEW007 BKN024 07/07 Q1023 WSW (240°) 6.9mph 7°C 7°C
19/03/19 01:50 EGNX 190150Z 24005KT 9999 SCT008 BKN026 07/07 Q1023 WSW (240°) 5.8mph 7°C 7°C
19/03/19 01:20 EGNX 190120Z 24006KT 9999 SCT009 BKN029 07/07 Q1023 WSW (240°) 6.9mph 7°C 7°C
19/03/19 00:50 EGNX 190050Z 23006KT 9999 BKN011 BKN030 07/07 Q1023 SW (230°) 6.9mph 7°C 7°C
19/03/19 00:20 EGNX 190020Z 24007KT 9999 BKN012 BKN033 07/07 Q1023 WSW (240°) 8.1mph 7°C 7°C
18/03/19 23:50 EGNX 182350Z 23006KT 9999 SCT011 BKN017 07/06 Q1023 SW (230°) 6.9mph 7°C 6°C
18/03/19 23:20 EGNX 182320Z 22005KT 9999 SCT010 BKN028 BKN039 07/06 Q1023 SW (220°) 5.8mph 7°C 6°C
18/03/19 22:20 EGNX 182220Z 22004KT 9999 BKN021 BKN041 07/06 Q1023 SW (220°) 4.6mph 7°C 6°C
18/03/19 21:50 EGNX 182150Z 23006KT 9999 -RA BKN019 07/06 Q1022 -RA SW (230°) 6.9mph 7°C 6°C
18/03/19 21:20 EGNX 182120Z 22007KT 9999 -RA BKN020 07/06 Q1022 -RA SW (220°) 8.1mph 7°C 6°C
18/03/19 20:50 EGNX 182050Z 18004KT 9999 BKN020 07/06 Q1022 S (180°) 4.6mph 7°C 6°C
18/03/19 20:20 EGNX 182020Z 20004KT 9999 -RA BKN018 07/06 Q1022 -RA SSW (200°) 4.6mph 7°C 6°C
18/03/19 19:20 EGNX 181920Z 21005KT 9999 -RA BKN031 07/06 Q1022 -RA SSW (210°) 5.8mph 7°C 6°C
18/03/19 18:50 EGNX 181850Z 20006KT 9999 -RA BKN032 07/05 Q1021 -RA SSW (200°) 6.9mph 7°C 5°C
18/03/19 17:50 EGNX 181750Z 21005KT 9999 SCT045 08/05 Q1021 SSW (210°) 5.8mph 8°C 5°C
18/03/19 17:20 EGNX 181720Z 24008KT 9999 SCT039 08/04 Q1021 WSW (240°) 9.2mph 8°C 4°C
18/03/19 16:50 EGNX 181650Z 24009KT 9999 FEW023 SCT038 08/04 Q1020 WSW (240°) 10.4mph 8°C 4°C
18/03/19 16:20 EGNX 181620Z 24009KT 9999 FEW022 SCT039 09/04 Q1020 WSW (240°) 10.4mph 9°C 4°C
18/03/19 15:50 EGNX 181550Z 24008KT 9999 FEW023 SCT041 09/04 Q1020 WSW (240°) 9.2mph 9°C 4°C
18/03/19 15:20 EGNX 181520Z 24009KT 9999 SCT023 SCT040 09/04 Q1020 WSW (240°) 10.4mph 9°C 4°C
18/03/19 14:50 EGNX 181450Z 25009KT 9999 SCT027 BKN045 09/04 Q1020 WSW (250°) 10.4mph 9°C 4°C
18/03/19 14:20 EGNX 181420Z 27010KT 9999 SCT027 BKN038 09/03 Q1020 W (270°) 11.5mph 9°C 3°C
18/03/19 13:20 EGNX 181320Z 27008KT 9999 SCT025 BKN036 08/03 Q1020 W (270°) 9.2mph 8°C 3°C
18/03/19 12:50 EGNX 181250Z 26011KT 9999 SCT026 BKN041 08/03 Q1020 W (260°) 12.7mph 8°C 3°C
18/03/19 12:20 EGNX 181220Z 27010KT 9999 SCT037 09/04 Q1020 W (270°) 11.5mph 9°C 4°C
18/03/19 11:50 EGNX 181150Z 27013KT 9999 SCT022 08/04 Q1020 W (270°) 15.0mph 8°C 4°C
18/03/19 11:20 EGNX 181120Z 27013KT 9999 BKN020 08/04 Q1020 W (270°) 15.0mph 8°C 4°C
18/03/19 10:50 EGNX 181050Z 27011KT 9999 FEW013 SCT026 BKN041 08/05 Q1020 W (270°) 12.7mph 8°C 5°C
18/03/19 10:20 EGNX 181020Z 27013KT 9999 FEW018 SCT033 BKN044 08/04 Q1019 W (270°) 15.0mph 8°C 4°C
18/03/19 09:50 EGNX 180950Z 26013KT 9999 SCT015 SCT047 07/04 Q1019 W (260°) 15.0mph 7°C 4°C
18/03/19 09:20 EGNX 180920Z 26013KT 9999 SCT043 06/04 Q1019 W (260°) 15.0mph 6°C 4°C
18/03/19 08:50 EGNX 180850Z 27012KT 9999 SCT048 06/04 Q1019 W (270°) 13.8mph 6°C 4°C
18/03/19 08:20 EGNX 180820Z 26013KT 9999 SCT038 05/04 Q1018 W (260°) 15.0mph 5°C 4°C
18/03/19 07:50 EGNX 180750Z 26011KT 9999 VCSH SCT020 SCT035 05/04 Q1018 VCSH W (260°) 12.7mph 5°C 4°C
18/03/19 07:20 EGNX 180720Z 25011KT 9999 SCT015 BKN038 04/03 Q1018 WSW (250°) 12.7mph 4°C 3°C
18/03/19 06:50 EGNX 180650Z 25011KT 9999 SCT023 04/03 Q1018 WSW (250°) 12.7mph 4°C 3°C
18/03/19 06:20 EGNX 180620Z 24008KT 9999 SCT022 03/02 Q1017 WSW (240°) 9.2mph 3°C 2°C
18/03/19 05:50 EGNX 180550Z 24008KT 9999 SCT023 04/03 Q1017 WSW (240°) 9.2mph 4°C 3°C
18/03/19 05:20 EGNX 180520Z 26009KT CAVOK 03/02 Q1017 W (260°) 10.4mph 3°C 2°C
18/03/19 04:50 EGNX 180450Z 28009KT CAVOK 03/02 Q1016 W (280°) 10.4mph 3°C 2°C
18/03/19 04:20 EGNX 180420Z AUTO 27011KT 9999 NCD 04/03 Q1016 W (270°) 12.7mph 4°C 3°C
18/03/19 03:50 EGNX 180350Z AUTO 27010KT 9999 NCD 04/02 Q1016 W (270°) 11.5mph 4°C 2°C
18/03/19 03:20 EGNX 180320Z AUTO 26007KT 9999 NCD 03/02 Q1016 W (260°) 8.1mph 3°C 2°C
18/03/19 02:20 EGNX 180220Z AUTO 28007KT 9999 NCD 04/02 Q1015 W (280°) 8.1mph 4°C 2°C
18/03/19 01:50 EGNX 180150Z AUTO 30012KT 9999 NCD 05/03 Q1015 WNW (300°) 13.8mph 5°C 3°C
18/03/19 01:20 EGNX 180120Z AUTO 29011KT 9999 NCD 05/03 Q1015 WNW (290°) 12.7mph 5°C 3°C
18/03/19 00:50 EGNX 180050Z AUTO 30013KT 9999 NCD 05/03 Q1014 WNW (300°) 15.0mph 5°C 3°C
18/03/19 00:20 EGNX 180020Z AUTO 29011KT 9999 NCD 05/03 Q1014 WNW (290°) 12.7mph 5°C 3°C
17/03/19 23:50 EGNX 172350Z 27012KT CAVOK 04/03 Q1013 W (270°) 13.8mph 4°C 3°C
17/03/19 23:20 EGNX 172320Z 29008KT 250V320 CAVOK 05/03 Q1013 WNW (290°) 9.2mph 5°C 3°C
17/03/19 22:50 EGNX 172250Z 30009KT CAVOK 05/03 Q1013 WNW (300°) 10.4mph 5°C 3°C
17/03/19 22:20 EGNX 172220Z 28008KT CAVOK 05/04 Q1012 W (280°) 9.2mph 5°C 4°C
17/03/19 21:50 EGNX 172150Z 28007KT 9999 FEW040 05/04 Q1011 W (280°) 8.1mph 5°C 4°C
17/03/19 20:50 EGNX 172050Z 28011KT 9999 FEW021 SCT030 05/03 Q1010 W (280°) 12.7mph 5°C 3°C
17/03/19 20:20 EGNX 172020Z 27012KT 9999 SCT021 04/02 Q1010 W (270°) 13.8mph 4°C 2°C
17/03/19 19:50 EGNX 171950Z 26011KT 9999 FEW024 04/02 Q1009 W (260°) 12.7mph 4°C 2°C
17/03/19 18:50 EGNX 171850Z 27012KT 9999 FEW024 BKN033 05/02 Q1008 W (270°) 13.8mph 5°C 2°C
17/03/19 18:20 EGNX 171820Z 27015KT 9999 BKN035 06/03 Q1008 W (270°) 17.3mph 6°C 3°C
17/03/19 17:50 EGNX 171750Z 27016KT 9999 FEW023 SCT035 05/02 Q1007 W (270°) 18.4mph 5°C 2°C
17/03/19 17:20 EGNX 171720Z 26016KT 9999 SCT026 BKN043 06/02 Q1006 W (260°) 18.4mph 6°C 2°C
17/03/19 16:50 EGNX 171650Z 26015KT 9999 BKN025 06/03 Q1006 W (260°) 17.3mph 6°C 3°C
17/03/19 16:20 EGNX 171620Z 27014KT 9999 FEW019 SCT034 06/03 Q1006 RESHRA W (270°) 16.1mph 6°C 3°C
17/03/19 15:50 EGNX 171550Z 26015KT 9999 VCSH FEW032 BKN041 07/02 Q1005 VCSH W (260°) 17.3mph 7°C 2°C
17/03/19 14:50 EGNX 171450Z 27015KT 9999 SCT041 08/01 Q1004 W (270°) 17.3mph 8°C 1°C
17/03/19 14:20 EGNX 171420Z 25019KT 9999 FEW024 SCT044 08/03 Q1004 WSW (250°) 21.9mph 8°C 3°C
17/03/19 13:50 EGNX 171350Z 25019KT 9999 FEW024 SCT036 07/02 Q1004 WSW (250°) 21.9mph 7°C 2°C
17/03/19 12:50 EGNX 171250Z 27016KT 9999 -SHRA FEW025 BKN033 07/00 Q1003 -SHRA W (270°) 18.4mph 7°C 0°C
17/03/19 11:50 EGNX 171150Z 27021KT 9999 BKN038 07/M01 Q1003 W (270°) 24.2mph 7°C -1°C
17/03/19 11:20 EGNX 171120Z 27020KT 9999 BKN034 08/01 Q1002 W (270°) 23.0mph 8°C 1°C
17/03/19 10:50 EGNX 171050Z 27021KT 9999 SCT032 06/00 Q1002 W (270°) 24.2mph 6°C 0°C
17/03/19 10:20 EGNX 171020Z 27019G31KT 9999 SCT027 06/01 Q1002 W (270°) 21.9mph 35.7mph 6°C 1°C
17/03/19 09:50 EGNX 170950Z 27020KT 9999 SCT025 05/01 Q1001 W (270°) 23.0mph 5°C 1°C
17/03/19 09:20 EGNX 170920Z 27021KT 9999 SCT020 05/01 Q1001 W (270°) 24.2mph 5°C 1°C
17/03/19 08:50 EGNX 170850Z 27018KT 9999 SCT020 05/02 Q1001 W (270°) 20.7mph 5°C 2°C
17/03/19 08:20 EGNX 170820Z 26016KT 9999 FEW025 04/02 Q1001 W (260°) 18.4mph 4°C 2°C
17/03/19 07:50 EGNX 170750Z 24012KT 9999 FEW030 04/02 Q1000 WSW (240°) 13.8mph 4°C 2°C
17/03/19 07:20 EGNX 170720Z 23010KT 9999 FEW029 03/01 Q1000 SW (230°) 11.5mph 3°C 1°C
17/03/19 06:20 EGNX 170620Z 26013KT 9999 FEW037 02/01 Q0999 W (260°) 15.0mph 2°C 1°C
17/03/19 05:50 EGNX 170550Z 26012KT 9999 FEW021 02/01 Q0998 W (260°) 13.8mph 2°C 1°C
17/03/19 05:20 EGNX 170520Z 26014KT 9999 BKN018 OVC030 03/02 Q0998 W (260°) 16.1mph 3°C 2°C
17/03/19 04:50 EGNX 170450Z AUTO 27010KT 9999 OVC017/// 02/02 Q0997 RERA W (270°) 11.5mph 2°C 2°C
17/03/19 04:20 EGNX 170420Z AUTO 28013KT 9999 OVC021/// 03/02 Q0997 RERA W (280°) 15.0mph 3°C 2°C
17/03/19 03:50 EGNX 170350Z AUTO 28013KT 9999 RA SCT009/// OVC021/// 02/02 Q0997 RERA RA W (280°) 15.0mph 2°C 2°C
17/03/19 03:20 EGNX 170320Z AUTO 29010KT 260V330 6000 RA SCT005/// OVC014/// 02/01 Q0997 RERA RA WNW (290°) 11.5mph 2°C 1°C
17/03/19 02:20 EGNX 170220Z AUTO 30013KT 5000 RA BKN010/// OVC041/// 04/02 Q0996 RA WNW (300°) 15.0mph 4°C 2°C
17/03/19 01:50 EGNX 170150Z AUTO 26016KT 9999 SCT022/// BKN039/// 04/02 Q0995 W (260°) 18.4mph 4°C 2°C
17/03/19 01:20 EGNX 170120Z AUTO 25012KT 9999 SCT017/// BKN048/// 04/02 Q0995 WSW (250°) 13.8mph 4°C 2°C
17/03/19 00:50 EGNX 170050Z AUTO 26013KT 9999 BKN017/// 05/03 Q0995 W (260°) 15.0mph 5°C 3°C
17/03/19 00:20 EGNX 170020Z AUTO 25013KT 9999 BKN021/// 05/03 Q0994 WSW (250°) 15.0mph 5°C 3°C
16/03/19 23:20 EGNX 162320Z 25012KT 9999 FEW032 05/03 Q0994 WSW (250°) 13.8mph 5°C 3°C
16/03/19 22:50 EGNX 162250Z 26015KT 9999 FEW041 05/03 Q0993 W (260°) 17.3mph 5°C 3°C
16/03/19 22:20 EGNX 162220Z 25014KT 9999 FEW034 05/03 Q0993 WSW (250°) 16.1mph 5°C 3°C
16/03/19 21:50 EGNX 162150Z 27012KT 9999 SCT024 05/03 Q0993 W (270°) 13.8mph 5°C 3°C
16/03/19 21:20 EGNX 162120Z 28012KT 9999 FEW032 05/04 Q0993 W (280°) 13.8mph 5°C 4°C
16/03/19 20:50 EGNX 162050Z 27013G23KT 9999 BKN046 06/05 Q0993 W (270°) 15.0mph 26.5mph 6°C 5°C
16/03/19 19:50 EGNX 161950Z 29015G25KT 9999 -RA SCT008 BKN021 06/05 Q0991 -RA WNW (290°) 17.3mph 28.8mph 6°C 5°C
16/03/19 19:20 EGNX 161920Z 23020KT 9999 -RA FEW017 BKN025 09/07 Q0990 -RA SW (230°) 23.0mph 9°C 7°C
16/03/19 18:20 EGNX 161820Z 22020KT 8000 RA BKN013 BKN032 09/08 Q0989 RA SW (220°) 23.0mph 9°C 8°C
16/03/19 17:50 EGNX 161750Z 22023G34KT 9999 -RA BKN015 BKN033 10/08 Q0990 -RA SW (220°) 26.5mph 39.1mph 10°C 8°C
16/03/19 17:20 EGNX 161720Z 21023KT 9999 -RA BKN015 10/08 Q0990 -RA SSW (210°) 26.5mph 10°C 8°C
16/03/19 16:50 EGNX 161650Z 21023KT 9999 -RA BKN018 BKN034 10/08 Q0990 -RA SSW (210°) 26.5mph 10°C 8°C
16/03/19 16:20 EGNX 161620Z 21025KT 9999 BKN018 BKN046 10/08 Q0990 SSW (210°) 28.8mph 10°C 8°C
16/03/19 15:50 EGNX 161550Z 22028G39KT 9000 -RA BKN021 11/07 Q0991 -RA SW (220°) 32.2mph 44.9mph 11°C 7°C
16/03/19 15:20 EGNX 161520Z 22024G38KT 9999 BKN023 11/07 Q0991 SW (220°) 27.6mph 43.7mph 11°C 7°C
16/03/19 14:50 EGNX 161450Z 21028G41KT 9999 BKN024 11/07 Q0992 SSW (210°) 32.2mph 47.2mph 11°C 7°C
16/03/19 14:20 EGNX 161420Z 21025G36KT 9999 BKN024 11/07 Q0992 SSW (210°) 28.8mph 41.4mph 11°C 7°C
16/03/19 13:50 EGNX 161350Z 21025G36KT 9999 BKN023 11/07 Q0993 SSW (210°) 28.8mph 41.4mph 11°C 7°C
16/03/19 13:20 EGNX 161320Z 22023G39KT 9999 BKN022 11/07 Q0993 SW (220°) 26.5mph 44.9mph 11°C 7°C
16/03/19 12:50 EGNX 161250Z 22025KT 9999 BKN021 11/07 Q0994 SW (220°) 28.8mph 11°C 7°C
16/03/19 12:20 EGNX 161220Z 22024G35KT 9999 BKN021 11/07 Q0994 SW (220°) 27.6mph 40.3mph 11°C 7°C
16/03/19 11:50 EGNX 161150Z 22025G35KT 9999 BKN022 11/07 Q0995 SW (220°) 28.8mph 40.3mph 11°C 7°C
16/03/19 11:20 EGNX 161120Z 22022KT 9999 OVC023 11/07 Q0995 SW (220°) 25.3mph 11°C 7°C
16/03/19 10:50 EGNX 161050Z 23030G41KT 9999 OVC024 11/07 Q0996 SW (230°) 34.5mph 47.2mph 11°C 7°C
16/03/19 10:20 EGNX 161020Z 22027KT 9999 BKN025 11/07 Q0996 SW (220°) 31.1mph 11°C 7°C
16/03/19 09:50 EGNX 160950Z 22025G36KT 9999 BKN024 11/07 Q0996 SW (220°) 28.8mph 41.4mph 11°C 7°C
16/03/19 09:20 EGNX 160920Z 22025G36KT 9999 BKN024 11/07 Q0996 SW (220°) 28.8mph 41.4mph 11°C 7°C
16/03/19 08:50 EGNX 160850Z 22029G41KT 9999 BKN022 11/07 Q0996 SW (220°) 33.4mph 47.2mph 11°C 7°C
16/03/19 08:20 EGNX 160820Z 22024KT 9999 BKN020 11/08 Q0997 SW (220°) 27.6mph 11°C 8°C
16/03/19 07:50 EGNX 160750Z 22024G34KT 9999 BKN020 10/08 Q0997 SW (220°) 27.6mph 39.1mph 10°C 8°C
16/03/19 07:20 EGNX 160720Z 22020G30KT 9999 BKN020 10/08 Q0998 SW (220°) 23.0mph 34.5mph 10°C 8°C
16/03/19 06:50 EGNX 160650Z 22018KT 9999 BKN019 10/08 Q0999 SW (220°) 20.7mph 10°C 8°C
16/03/19 06:20 EGNX 160620Z 22022KT 9999 SCT022 11/08 Q0999 SW (220°) 25.3mph 11°C 8°C
16/03/19 05:50 EGNX 160550Z 22020KT 9999 FEW022 BKN035 11/08 Q0999 SW (220°) 23.0mph 11°C 8°C
16/03/19 05:20 EGNX 160520Z 22020G30KT 9999 FEW021 BKN035 10/09 Q0999 SW (220°) 23.0mph 34.5mph 10°C 9°C
16/03/19 04:50 EGNX 160450Z 22017KT 9999 FEW017 SCT032 10/10 Q1000 SW (220°) 19.6mph 10°C 10°C
16/03/19 04:20 EGNX 160420Z 22018KT 9999 SCT025 10/10 Q1000 SW (220°) 20.7mph 10°C 10°C
16/03/19 03:50 EGNX 160350Z 22018KT 9999 -RA FEW010 SCT025 10/10 Q1001 -RA SW (220°) 20.7mph 10°C 10°C
16/03/19 03:20 EGNX 160320Z 22017KT 9999 -RA FEW008 BKN010 BKN024 09/09 Q1001 -RA SW (220°) 19.6mph 9°C 9°C
16/03/19 02:50 EGNX 160250Z 21014KT 8000 -RA FEW004 SCT009 BKN018 09/09 Q1002 REDZ -RA SSW (210°) 16.1mph 9°C 9°C
16/03/19 02:20 EGNX 160220Z 14008KT 4000 DZ SCT002 BKN004 07/07 Q1003 RERA DZ SE (140°) 9.2mph 7°C 7°C
16/03/19 01:50 EGNX 160150Z 15005KT 1500 RADZ BKN002 OVC010 07/06 Q1004 REDZ RA DZ SSE (150°) 5.8mph 7°C 6°C
16/03/19 01:20 EGNX 160120Z 17005KT 3500 RADZ SCT004 BKN013 07/06 Q1005 REDZ RA DZ S (170°) 5.8mph 7°C 6°C
16/03/19 00:50 EGNX 160050Z 18006KT 5000 RA FEW004 SCT008 BKN014 07/06 Q1006 RA S (180°) 6.9mph 7°C 6°C
16/03/19 00:20 EGNX 160020Z 20009KT 7000 RA FEW010 BKN019 07/05 Q1006 RA SSW (200°) 10.4mph 7°C 5°C
15/03/19 23:50 EGNX 152350Z 21006KT 180V260 9999 -RA BKN038 07/05 Q1007 -RA SSW (210°) 6.9mph 7°C 5°C
15/03/19 23:20 EGNX 152320Z 20007KT 9999 -RA BKN043 07/04 Q1007 -RA SSW (200°) 8.1mph 7°C 4°C
15/03/19 22:50 EGNX 152250Z 22008KT CAVOK 07/04 Q1007 SW (220°) 9.2mph 7°C 4°C
15/03/19 22:20 EGNX 152220Z 19006KT 9999 FEW030 07/04 Q1008 S (190°) 6.9mph 7°C 4°C
15/03/19 21:50 EGNX 152150Z 23008KT 9999 FEW028 SCT036 07/04 Q1008 SW (230°) 9.2mph 7°C 4°C
15/03/19 21:20 EGNX 152120Z 24009KT 9999 SCT033 07/04 Q1008 WSW (240°) 10.4mph 7°C 4°C
15/03/19 20:50 EGNX 152050Z 24005KT 9999 FEW040 07/04 Q1008 WSW (240°) 5.8mph 7°C 4°C